sensor_id;sensor_type;location;lat;lon;timestamp;pressure;altitude;pressure_sealevel;temperature;humidity
68508;BME280;55510;49.560;19.090;2023-02-13T00:01:51;98430.34;;;-1.24;100.00
68508;BME280;55510;49.560;19.090;2023-02-13T00:04:52;98428.31;;;-1.21;100.00
68508;BME280;55510;49.560;19.090;2023-02-13T00:07:53;98429.63;;;-1.15;100.00
68508;BME280;55510;49.560;19.090;2023-02-13T00:10:53;98434.38;;;-1.09;100.00
68508;BME280;55510;49.560;19.090;2023-02-13T00:13:54;98422.72;;;-1.05;100.00
68508;BME280;55510;49.560;19.090;2023-02-13T00:16:55;98430.09;;;-0.98;100.00
68508;BME280;55510;49.560;19.090;2023-02-13T00:19:56;98424.75;;;-0.97;100.00
68508;BME280;55510;49.560;19.090;2023-02-13T00:22:58;98432.22;;;-1.04;100.00
68508;BME280;55510;49.560;19.090;2023-02-13T00:25:59;98432.94;;;-1.02;100.00
68508;BME280;55510;49.560;19.090;2023-02-13T00:29:00;98417.97;;;-0.99;100.00
68508;BME280;55510;49.560;19.090;2023-02-13T00:32:01;98420.72;;;-1.01;100.00
68508;BME280;55510;49.560;19.090;2023-02-13T00:35:02;98411.94;;;-1.00;100.00
68508;BME280;55510;49.560;19.090;2023-02-13T00:38:02;98417.75;;;-0.96;100.00
68508;BME280;55510;49.560;19.090;2023-02-13T00:41:03;98412.19;;;-1.03;100.00
68508;BME280;55510;49.560;19.090;2023-02-13T00:44:04;98414.06;;;-1.05;100.00
68508;BME280;55510;49.560;19.090;2023-02-13T00:47:05;98408.84;;;-1.05;100.00
68508;BME280;55510;49.560;19.090;2023-02-13T00:50:06;98407.19;;;-1.06;100.00
68508;BME280;55510;49.560;19.090;2023-02-13T00:53:06;98407.66;;;-1.01;100.00
68508;BME280;55510;49.560;19.090;2023-02-13T00:56:08;98407.75;;;-1.03;100.00
68508;BME280;55510;49.560;19.090;2023-02-13T00:59:08;98408.22;;;-0.97;100.00
68508;BME280;55510;49.560;19.090;2023-02-13T01:02:09;98408.47;;;-0.89;100.00
68508;BME280;55510;49.560;19.090;2023-02-13T01:05:10;98406.69;;;-0.89;100.00
68508;BME280;55510;49.560;19.090;2023-02-13T01:08:11;98404.19;;;-1.02;100.00
68508;BME280;55510;49.560;19.090;2023-02-13T01:11:12;98403.25;;;-1.12;100.00
68508;BME280;55510;49.560;19.090;2023-02-13T01:14:13;98399.59;;;-1.09;100.00
68508;BME280;55510;49.560;19.090;2023-02-13T01:17:15;98390.66;;;-1.07;100.00
68508;BME280;55510;49.560;19.090;2023-02-13T01:20:16;98381.88;;;-1.06;100.00
68508;BME280;55510;49.560;19.090;2023-02-13T01:23:16;98384.63;;;-1.07;100.00
68508;BME280;55510;49.560;19.090;2023-02-13T01:26:21;98374.97;;;-1.07;100.00
68508;BME280;55510;49.560;19.090;2023-02-13T01:29:22;98385.19;;;-1.04;100.00
68508;BME280;55510;49.560;19.090;2023-02-13T01:32:23;98379.88;;;-1.02;100.00
68508;BME280;55510;49.560;19.090;2023-02-13T01:35:24;98376.16;;;-0.99;100.00
68508;BME280;55510;49.560;19.090;2023-02-13T01:38:25;98387.31;;;-0.97;100.00
68508;BME280;55510;49.560;19.090;2023-02-13T01:41:26;98380.81;;;-1.03;100.00
68508;BME280;55510;49.560;19.090;2023-02-13T01:44:53;98377.50;;;-1.05;100.00
68508;BME280;55510;49.560;19.090;2023-02-13T01:48:10;98371.19;;;-1.03;100.00
68508;BME280;55510;49.560;19.090;2023-02-13T01:51:17;98372.50;;;-0.97;100.00
68508;BME280;55510;49.560;19.090;2023-02-13T01:54:27;98369.13;;;-0.88;100.00
68508;BME280;55510;49.560;19.090;2023-02-13T01:57:32;98368.09;;;-0.85;100.00
68508;BME280;55510;49.560;19.090;2023-02-13T02:00:34;98358.78;;;-0.89;100.00
68508;BME280;55510;49.560;19.090;2023-02-13T02:03:47;98347.63;;;-0.91;100.00
68508;BME280;55510;49.560;19.090;2023-02-13T02:06:52;98353.34;;;-0.97;100.00
68508;BME280;55510;49.560;19.090;2023-02-13T02:09:59;98354.06;;;-0.95;100.00
68508;BME280;55510;49.560;19.090;2023-02-13T02:13:16;98342.66;;;-0.94;100.00
68508;BME280;55510;49.560;19.090;2023-02-13T02:16:18;98347.63;;;-0.91;100.00
68508;BME280;55510;49.560;19.090;2023-02-13T02:19:41;98348.56;;;-0.92;100.00
68508;BME280;55510;49.560;19.090;2023-02-13T02:32:40;98333.59;;;-0.90;100.00
68508;BME280;55510;49.560;19.090;2023-02-13T02:52:16;98338.47;;;-0.85;100.00
68508;BME280;55510;49.560;19.090;2023-02-13T02:55:42;98341.69;;;-0.82;100.00
68508;BME280;55510;49.560;19.090;2023-02-13T02:58:59;98340.50;;;-0.78;100.00
68508;BME280;55510;49.560;19.090;2023-02-13T03:02:22;98338.44;;;-0.74;100.00
68508;BME280;55510;49.560;19.090;2023-02-13T03:05:43;98345.34;;;-0.73;100.00
68508;BME280;55510;49.560;19.090;2023-02-13T03:09:06;98343.41;;;-0.71;100.00
68508;BME280;55510;49.560;19.090;2023-02-13T03:12:34;98347.03;;;-0.83;100.00
68508;BME280;55510;49.560;19.090;2023-02-13T03:15:57;98334.56;;;-0.80;100.00
68508;BME280;55510;49.560;19.090;2023-02-13T03:19:45;98340.59;;;-0.79;100.00
68508;BME280;55510;49.560;19.090;2023-02-13T03:23:22;98336.53;;;-0.72;100.00
68508;BME280;55510;49.560;19.090;2023-02-13T03:26:48;98338.78;;;-0.67;100.00
68508;BME280;55510;49.560;19.090;2023-02-13T03:29:58;98335.22;;;-0.66;100.00
68508;BME280;55510;49.560;19.090;2023-02-13T03:40:39;98337.38;;;-0.71;100.00
68508;BME280;55510;49.560;19.090;2023-02-13T14:13:33;98236.81;;;4.05;90.05
68508;BME280;55510;49.560;19.090;2023-02-13T14:16:40;98228.47;;;4.10;89.79
68508;BME280;55510;49.560;19.090;2023-02-13T14:19:46;98222.34;;;4.10;90.32
68508;BME280;55510;49.560;19.090;2023-02-13T14:22:50;98225.63;;;4.03;89.53
68508;BME280;55510;49.560;19.090;2023-02-13T14:29:31;98237.44;;;3.99;90.34
68508;BME280;55510;49.560;19.090;2023-02-13T14:32:36;98238.44;;;3.98;90.22
68508;BME280;55510;49.560;19.090;2023-02-13T14:35:40;98233.47;;;3.95;89.70
68508;BME280;55510;49.560;19.090;2023-02-13T14:38:42;98234.28;;;3.96;90.80
68508;BME280;55510;49.560;19.090;2023-02-13T14:44:48;98246.38;;;3.80;91.22
68508;BME280;55510;49.560;19.090;2023-02-13T14:47:52;98244.38;;;3.74;91.55
68508;BME280;55510;49.560;19.090;2023-02-13T14:50:56;98243.31;;;3.67;91.92
68508;BME280;55510;49.560;19.090;2023-02-13T14:57:28;98220.38;;;3.59;91.77
68508;BME280;55510;49.560;19.090;2023-02-13T15:03:46;98203.69;;;3.50;93.36
68508;BME280;55510;49.560;19.090;2023-02-13T15:06:48;98209.38;;;3.37;94.02
68508;BME280;55510;49.560;19.090;2023-02-13T15:09:56;98211.63;;;3.32;94.39
68508;BME280;55510;49.560;19.090;2023-02-13T15:12:59;98209.75;;;3.24;94.74
68508;BME280;55510;49.560;19.090;2023-02-13T15:16:09;98205.41;;;3.15;95.64
68508;BME280;55510;49.560;19.090;2023-02-13T15:19:16;98198.41;;;3.05;96.07
68508;BME280;55510;49.560;19.090;2023-02-13T15:22:29;98197.22;;;3.00;96.44
68508;BME280;55510;49.560;19.090;2023-02-13T15:25:42;98208.34;;;2.94;96.80
68508;BME280;55510;49.560;19.090;2023-02-13T15:29:03;98205.75;;;2.84;97.17
68508;BME280;55510;49.560;19.090;2023-02-13T15:32:30;98210.09;;;2.75;97.30
68508;BME280;55510;49.560;19.090;2023-02-13T15:35:33;98193.56;;;2.65;97.40
68508;BME280;55510;49.560;19.090;2023-02-13T15:38:35;98203.53;;;2.61;97.91
68508;BME280;55510;49.560;19.090;2023-02-13T15:41:40;98203.16;;;2.56;98.78
68508;BME280;55510;49.560;19.090;2023-02-13T15:44:44;98192.56;;;2.47;99.16
68508;BME280;55510;49.560;19.090;2023-02-13T15:47:47;98201.41;;;2.46;99.63
68508;BME280;55510;49.560;19.090;2023-02-13T15:50:48;98196.06;;;2.38;100.00
68508;BME280;55510;49.560;19.090;2023-02-13T15:54:05;98181.03;;;2.30;100.00
68508;BME280;55510;49.560;19.090;2023-02-13T15:57:05;98194.63;;;2.26;100.00
68508;BME280;55510;49.560;19.090;2023-02-13T16:00:13;98185.50;;;2.20;100.00
68508;BME280;55510;49.560;19.090;2023-02-13T16:03:18;98176.56;;;2.13;100.00
68508;BME280;55510;49.560;19.090;2023-02-13T16:06:20;98169.19;;;2.16;100.00
68508;BME280;55510;49.560;19.090;2023-02-13T16:12:27;98179.50;;;2.00;100.00
68508;BME280;55510;49.560;19.090;2023-02-13T16:15:30;98181.75;;;1.95;100.00
68508;BME280;55510;49.560;19.090;2023-02-13T16:18:31;98198.75;;;1.91;100.00
68508;BME280;55510;49.560;19.090;2023-02-13T16:21:32;98188.56;;;1.78;100.00
68508;BME280;55510;49.560;19.090;2023-02-13T16:24:35;98187.59;;;1.79;100.00
68508;BME280;55510;49.560;19.090;2023-02-13T16:28:02;98196.56;;;1.76;100.00
68508;BME280;55510;49.560;19.090;2023-02-13T16:31:02;98203.06;;;1.72;100.00
68508;BME280;55510;49.560;19.090;2023-02-13T16:34:25;98200.75;;;1.69;100.00
68508;BME280;55510;49.560;19.090;2023-02-13T16:37:31;98197.03;;;1.62;100.00
68508;BME280;55510;49.560;19.090;2023-02-13T16:40:34;98192.34;;;1.55;100.00
68508;BME280;55510;49.560;19.090;2023-02-13T16:43:39;98198.69;;;1.53;100.00
68508;BME280;55510;49.560;19.090;2023-02-13T16:46:42;98202.44;;;1.50;100.00
68508;BME280;55510;49.560;19.090;2023-02-13T16:49:52;98196.50;;;1.48;100.00
68508;BME280;55510;49.560;19.090;2023-02-13T16:53:02;98189.59;;;1.47;100.00
68508;BME280;55510;49.560;19.090;2023-02-13T16:56:08;98198.44;;;1.46;100.00
68508;BME280;55510;49.560;19.090;2023-02-13T17:05:27;98207.84;;;1.39;100.00
68508;BME280;55510;49.560;19.090;2023-02-13T17:08:29;98197.63;;;1.36;100.00
68508;BME280;55510;49.560;19.090;2023-02-13T17:11:31;98208.25;;;1.34;100.00
68508;BME280;55510;49.560;19.090;2023-02-13T17:14:31;98209.22;;;1.33;100.00
68508;BME280;55510;49.560;19.090;2023-02-13T17:17:32;98202.19;;;1.34;100.00
68508;BME280;55510;49.560;19.090;2023-02-13T17:20:34;98196.13;;;1.33;100.00
68508;BME280;55510;49.560;19.090;2023-02-13T17:23:34;98203.97;;;1.33;100.00
68508;BME280;55510;49.560;19.090;2023-02-13T17:26:35;98206.72;;;1.32;100.00
68508;BME280;55510;49.560;19.090;2023-02-13T17:29:36;98202.31;;;1.32;100.00
68508;BME280;55510;49.560;19.090;2023-02-13T17:32:37;98208.81;;;1.28;100.00
68508;BME280;55510;49.560;19.090;2023-02-13T17:35:38;98208.94;;;1.26;100.00
68508;BME280;55510;49.560;19.090;2023-02-13T17:38:39;98195.41;;;1.21;100.00
68508;BME280;55510;49.560;19.090;2023-02-13T17:41:40;98181.63;;;1.19;100.00
68508;BME280;55510;49.560;19.090;2023-02-13T17:44:42;98170.16;;;1.20;100.00
68508;BME280;55510;49.560;19.090;2023-02-13T17:47:43;98166.16;;;1.16;100.00
68508;BME280;55510;49.560;19.090;2023-02-13T17:50:43;98174.03;;;1.16;100.00
68508;BME280;55510;49.560;19.090;2023-02-13T17:53:45;98173.34;;;1.14;100.00
68508;BME280;55510;49.560;19.090;2023-02-13T17:56:46;98171.28;;;1.08;100.00
68508;BME280;55510;49.560;19.090;2023-02-13T17:59:47;98173.34;;;1.04;100.00
68508;BME280;55510;49.560;19.090;2023-02-13T18:02:49;98179.72;;;1.01;100.00
68508;BME280;55510;49.560;19.090;2023-02-13T18:05:51;98182.34;;;1.01;100.00
68508;BME280;55510;49.560;19.090;2023-02-13T18:08:52;98172.81;;;1.00;100.00
68508;BME280;55510;49.560;19.090;2023-02-13T18:11:52;98173.63;;;1.01;100.00
68508;BME280;55510;49.560;19.090;2023-02-13T18:14:53;98161.06;;;1.05;100.00
68508;BME280;55510;49.560;19.090;2023-02-13T18:17:54;98166.72;;;1.10;100.00
68508;BME280;55510;49.560;19.090;2023-02-13T18:20:55;98171.69;;;1.13;100.00
68508;BME280;55510;49.560;19.090;2023-02-13T18:23:56;98177.78;;;1.13;100.00
68508;BME280;55510;49.560;19.090;2023-02-13T18:26:57;98171.69;;;1.13;100.00
68508;BME280;55510;49.560;19.090;2023-02-13T18:29:58;98184.13;;;1.11;100.00
68508;BME280;55510;49.560;19.090;2023-02-13T18:32:59;98185.09;;;1.10;100.00
68508;BME280;55510;49.560;19.090;2023-02-13T18:36:04;98178.31;;;1.07;100.00
68508;BME280;55510;49.560;19.090;2023-02-13T18:39:06;98170.59;;;1.06;100.00
68508;BME280;55510;49.560;19.090;2023-02-13T18:42:07;98167.28;;;1.04;100.00
68508;BME280;55510;49.560;19.090;2023-02-13T18:45:09;98193.50;;;1.04;100.00
68508;BME280;55510;49.560;19.090;2023-02-13T18:48:11;98179.72;;;1.01;100.00
68508;BME280;55510;49.560;19.090;2023-02-13T18:51:12;98194.59;;;1.01;100.00
68508;BME280;55510;49.560;19.090;2023-02-13T18:54:13;98202.34;;;1.03;100.00
68508;BME280;55510;49.560;19.090;2023-02-13T18:57:13;98208.56;;;1.01;100.00
68508;BME280;55510;49.560;19.090;2023-02-13T19:00:14;98212.13;;;1.00;100.00
68508;BME280;55510;49.560;19.090;2023-02-13T19:03:16;98188.81;;;0.97;100.00
68508;BME280;55510;49.560;19.090;2023-02-13T19:06:23;98181.66;;;0.99;100.00
68508;BME280;55510;49.560;19.090;2023-02-13T19:09:26;98160.66;;;0.99;100.00
68508;BME280;55510;49.560;19.090;2023-02-13T19:12:27;98183.28;;;1.00;100.00
68508;BME280;55510;49.560;19.090;2023-02-13T19:15:28;98193.63;;;1.02;100.00
68508;BME280;55510;49.560;19.090;2023-02-13T19:18:28;98202.91;;;0.96;100.00
68508;BME280;55510;49.560;19.090;2023-02-13T19:21:31;98217.25;;;0.92;100.00
68508;BME280;55510;49.560;19.090;2023-02-13T19:24:33;98219.16;;;0.90;100.00
68508;BME280;55510;49.560;19.090;2023-02-13T19:27:37;98222.50;;;0.92;100.00
68508;BME280;55510;49.560;19.090;2023-02-13T19:30:37;98211.16;;;0.92;100.00
68508;BME280;55510;49.560;19.090;2023-02-13T19:33:38;98219.28;;;0.89;100.00
68508;BME280;55510;49.560;19.090;2023-02-13T19:36:42;98219.16;;;0.90;100.00
68508;BME280;55510;49.560;19.090;2023-02-13T19:39:43;98226.19;;;0.90;100.00
68508;BME280;55510;49.560;19.090;2023-02-13T19:42:44;98234.19;;;0.88;100.00
68508;BME280;55510;49.560;19.090;2023-02-13T19:45:44;98231.03;;;0.84;100.00
68508;BME280;55510;49.560;19.090;2023-02-13T19:48:45;98221.63;;;0.82;100.00
68508;BME280;55510;49.560;19.090;2023-02-13T19:51:46;98238.47;;;0.79;100.00
68508;BME280;55510;49.560;19.090;2023-02-13T19:54:47;98247.13;;;0.80;100.00
68508;BME280;55510;49.560;19.090;2023-02-13T19:57:48;98251.69;;;0.78;100.00
68508;BME280;55510;49.560;19.090;2023-02-13T20:00:48;98255.97;;;0.79;100.00
68508;BME280;55510;49.560;19.090;2023-02-13T20:03:50;98252.53;;;0.78;100.00
68508;BME280;55510;49.560;19.090;2023-02-13T20:06:51;98250.59;;;0.80;100.00
68508;BME280;55510;49.560;19.090;2023-02-13T20:09:57;98256.81;;;0.79;100.00
68508;BME280;55510;49.560;19.090;2023-02-13T20:12:58;98249.75;;;0.80;100.00
68508;BME280;55510;49.560;19.090;2023-02-13T20:15:59;98267.16;;;0.81;100.00
68508;BME280;55510;49.560;19.090;2023-02-13T20:19:00;98250.59;;;0.80;100.00
68508;BME280;55510;49.560;19.090;2023-02-13T20:22:03;98254.03;;;0.81;100.00
68508;BME280;55510;49.560;19.090;2023-02-13T20:25:04;98253.34;;;0.79;100.00
68508;BME280;55510;49.560;19.090;2023-02-13T20:28:05;98253.34;;;0.79;100.00
68508;BME280;55510;49.560;19.090;2023-02-13T20:31:15;98256.13;;;0.77;100.00
68508;BME280;55510;49.560;19.090;2023-02-13T20:34:16;98247.28;;;0.78;100.00
68508;BME280;55510;49.560;19.090;2023-02-13T20:37:17;98243.00;;;0.77;100.00
68508;BME280;55510;49.560;19.090;2023-02-13T20:40:17;98245.06;;;0.74;100.00
68508;BME280;55510;49.560;19.090;2023-02-13T20:43:19;98254.72;;;0.73;100.00
68508;BME280;55510;49.560;19.090;2023-02-13T20:46:20;98249.50;;;0.73;100.00
68508;BME280;55510;49.560;19.090;2023-02-13T20:49:21;98251.41;;;0.71;100.00
68508;BME280;55510;49.560;19.090;2023-02-13T20:52:21;98251.53;;;0.69;100.00
68508;BME280;55510;49.560;19.090;2023-02-13T20:55:22;98251.94;;;0.65;100.00
68508;BME280;55510;49.560;19.090;2023-02-13T20:58:23;98251.50;;;0.60;100.00
68508;BME280;55510;49.560;19.090;2023-02-13T21:01:35;98249.56;;;0.62;100.00
68508;BME280;55510;49.560;19.090;2023-02-13T21:04:39;98259.94;;;0.63;100.00
68508;BME280;55510;49.560;19.090;2023-02-13T21:07:40;98266.84;;;0.64;100.00
68508;BME280;55510;49.560;19.090;2023-02-13T21:10:41;98266.16;;;0.62;100.00
68508;BME280;55510;49.560;19.090;2023-02-13T21:13:42;98263.38;;;0.64;100.00
68508;BME280;55510;49.560;19.090;2023-02-13T21:16:46;98260.75;;;0.64;100.00
68508;BME280;55510;49.560;19.090;2023-02-13T21:19:46;98250.28;;;0.64;100.00
68508;BME280;55510;49.560;19.090;2023-02-13T21:22:47;98249.72;;;0.60;100.00
68508;BME280;55510;49.560;19.090;2023-02-13T21:25:48;98247.81;;;0.62;100.00
68508;BME280;55510;49.560;19.090;2023-02-13T21:28:49;98246.16;;;0.61;100.00
68508;BME280;55510;49.560;19.090;2023-02-13T21:31:50;98244.22;;;0.63;100.00
68508;BME280;55510;49.560;19.090;2023-02-13T21:34:54;98241.19;;;0.58;100.00
68508;BME280;55510;49.560;19.090;2023-02-13T21:37:55;98248.34;;;0.56;100.00
68508;BME280;55510;49.560;19.090;2023-02-13T21:41:10;98244.06;;;0.55;100.00
68508;BME280;55510;49.560;19.090;2023-02-13T21:44:13;98246.81;;;0.53;100.00
68508;BME280;55510;49.560;19.090;2023-02-13T21:47:15;98237.16;;;0.54;100.00
68508;BME280;55510;49.560;19.090;2023-02-13T21:50:16;98236.47;;;0.52;100.00
68508;BME280;55510;49.560;19.090;2023-02-13T21:53:17;98232.03;;;0.52;100.00
68508;BME280;55510;49.560;19.090;2023-02-13T21:56:23;98227.06;;;0.49;100.00
68508;BME280;55510;49.560;19.090;2023-02-13T21:59:24;98235.09;;;0.48;100.00
68508;BME280;55510;49.560;19.090;2023-02-13T22:02:24;98232.59;;;0.46;100.00
68508;BME280;55510;49.560;19.090;2023-02-13T22:05:26;98230.66;;;0.48;100.00
68508;BME280;55510;49.560;19.090;2023-02-13T22:08:26;98224.88;;;0.45;100.00
68508;BME280;55510;49.560;19.090;2023-02-13T22:11:28;98227.50;;;0.45;100.00
68508;BME280;55510;49.560;19.090;2023-02-13T22:14:29;98223.19;;;0.43;100.00
68508;BME280;55510;49.560;19.090;2023-02-13T22:17:29;98216.28;;;0.42;100.00
68508;BME280;55510;49.560;19.090;2023-02-13T22:20:34;98226.91;;;0.41;100.00
68508;BME280;55510;49.560;19.090;2023-02-13T22:23:36;98221.53;;;0.42;100.00
68508;BME280;55510;49.560;19.090;2023-02-13T22:26:38;98212.97;;;0.40;100.00
68508;BME280;55510;49.560;19.090;2023-02-13T22:29:42;98214.09;;;0.38;100.00
68508;BME280;55510;49.560;19.090;2023-02-13T22:32:42;98213.41;;;0.36;100.00
68508;BME280;55510;49.560;19.090;2023-02-13T22:35:43;98215.75;;;0.39;100.00
68508;BME280;55510;49.560;19.090;2023-02-13T22:38:44;98217.53;;;0.38;100.00
68508;BME280;55510;49.560;19.090;2023-02-13T22:41:45;98207.59;;;0.32;100.00
68508;BME280;55510;49.560;19.090;2023-02-13T22:44:46;98217.78;;;0.35;100.00
68508;BME280;55510;49.560;19.090;2023-02-13T22:47:46;98219.59;;;0.35;100.00
68508;BME280;55510;49.560;19.090;2023-02-13T22:50:47;98210.78;;;0.36;100.00
68508;BME280;55510;49.560;19.090;2023-02-13T22:53:51;98216.56;;;0.39;100.00
68508;BME280;55510;49.560;19.090;2023-02-13T22:56:52;98212.28;;;0.38;100.00
68508;BME280;55510;49.560;19.090;2023-02-13T22:59:53;98212.97;;;0.40;100.00
68508;BME280;55510;49.560;19.090;2023-02-13T23:02:53;98214.41;;;0.45;100.00
68508;BME280;55510;49.560;19.090;2023-02-13T23:05:54;98207.75;;;0.40;100.00
68508;BME280;55510;49.560;19.090;2023-02-13T23:08:55;98214.63;;;0.41;100.00
68508;BME280;55510;49.560;19.090;2023-02-13T23:11:57;98202.22;;;0.43;100.00
68508;BME280;55510;49.560;19.090;2023-02-13T23:15:16;98209.41;;;0.41;100.00
68508;BME280;55510;49.560;19.090;2023-02-13T23:18:17;98209.41;;;0.41;100.00
68508;BME280;55510;49.560;19.090;2023-02-13T23:21:18;98208.44;;;0.42;100.00
68508;BME280;55510;49.560;19.090;2023-02-13T23:24:19;98198.69;;;0.45;100.00
68508;BME280;55510;49.560;19.090;2023-02-13T23:27:20;98190.81;;;0.45;100.00
68508;BME280;55510;49.560;19.090;2023-02-13T23:30:21;98197.00;;;0.43;100.00
68508;BME280;55510;49.560;19.090;2023-02-13T23:33:22;98188.59;;;0.40;100.00
68508;BME280;55510;49.560;19.090;2023-02-13T23:36:22;98184.84;;;0.42;100.00
68508;BME280;55510;49.560;19.090;2023-02-13T23:39:23;98187.63;;;0.41;100.00
68508;BME280;55510;49.560;19.090;2023-02-13T23:42:24;98180.59;;;0.41;100.00
68508;BME280;55510;49.560;19.090;2023-02-13T23:45:24;98179.19;;;0.37;100.00
68508;BME280;55510;49.560;19.090;2023-02-13T23:48:25;98177.53;;;0.36;100.00
68508;BME280;55510;49.560;19.090;2023-02-13T23:51:26;98177.41;;;0.38;100.00
68508;BME280;55510;49.560;19.090;2023-02-13T23:54:26;98179.88;;;0.39;100.00
68508;BME280;55510;49.560;19.090;2023-02-13T23:57:27;98171.22;;;0.39;100.00
